Time;durP1;ratioP1;P1;durP2;ratioP2;P2;SDS_P1;SDS_P2;PMS_P1;PMS_P2;Temp;Humidity;BMP_temperature;BMP_pressure;BME280_temperature;BME280_humidity;BME280_pressure;Samples;Min_cycle;Max_cycle;Signal;HPM_P1;HPM_P2
2021/11/11 00:00:49;;;;;;;5.97;3.80;;;;;;;3.03;87.63;96822.88;5037955;28;20711;-69
2021/11/11 00:03:16;;;;;;;5.90;3.70;;;;;;;2.73;87.77;96826.97;5037683;28;20197;-69
2021/11/11 00:05:44;;;;;;;4.63;4.20;;;;;;;2.82;86.44;96824.50;5037470;28;20205;-69
2021/11/11 00:08:11;;;;;;;5.80;4.10;;;;;;;2.60;87.63;96826.25;5038406;28;20313;-69
2021/11/11 00:10:38;;;;;;;4.50;3.40;;;;;;;2.68;88.01;96827.31;5037811;28;20206;-69
2021/11/11 00:13:04;;;;;;;6.13;3.67;;;;;;;2.61;90.54;96820.06;5037606;28;20640;-69
2021/11/11 00:15:31;;;;;;;6.60;4.33;;;;;;;2.52;88.53;96824.22;5037929;28;20197;-69
2021/11/11 00:17:58;;;;;;;2.60;2.40;;;;;;;2.74;88.18;96821.66;5037829;28;20218;-69
2021/11/11 00:20:27;;;;;;;6.73;2.97;;;;;;;3.02;88.75;96822.03;5037754;28;20201;-69
2021/11/11 00:22:58;;;;;;;5.03;4.13;;;;;;;3.14;89.03;96817.66;5036822;28;21158;-69
2021/11/11 00:25:26;;;;;;;6.70;5.17;;;;;;;3.01;88.74;96815.16;5037073;28;21152;-69
2021/11/11 00:27:52;;;;;;;4.17;3.43;;;;;;;2.85;88.81;96807.81;5037152;28;20666;-69
2021/11/11 00:30:20;;;;;;;7.83;4.30;;;;;;;3.03;87.90;96802.06;5038130;28;20208;-69
2021/11/11 00:32:49;;;;;;;6.30;2.97;;;;;;;2.88;86.76;96810.19;5037524;28;20230;-69
2021/11/11 00:35:18;;;;;;;2.33;1.97;;;;;;;2.83;87.31;96804.53;5033857;28;20205;-69
2021/11/11 00:37:45;;;;;;;6.40;4.37;;;;;;;2.61;88.37;96797.50;5036175;28;20208;-69
2021/11/11 00:40:13;;;;;;;4.10;3.67;;;;;;;2.91;88.97;96795.16;5037224;28;20217;-69
2021/11/11 00:42:40;;;;;;;6.10;5.03;;;;;;;2.89;90.15;96798.84;5037772;28;20197;-68
2021/11/11 00:45:08;;;;;;;5.63;4.13;;;;;;;3.12;90.15;96796.16;5037472;28;20200;-69
2021/11/11 00:47:35;;;;;;;5.77;4.23;;;;;;;3.04;89.09;96788.06;5036343;28;20205;-69
2021/11/11 00:50:01;;;;;;;12.43;5.70;;;;;;;3.11;88.90;96784.88;5037147;28;20600;-69
2021/11/11 00:52:28;;;;;;;4.77;3.97;;;;;;;3.12;88.29;96790.94;5037211;28;20230;-69
2021/11/11 00:54:54;;;;;;;6.33;3.50;;;;;;;2.92;88.08;96788.22;5037027;28;20587;-69
2021/11/11 00:57:22;;;;;;;8.00;3.53;;;;;;;3.13;88.82;96789.97;5036148;28;20761;-69
2021/11/11 00:59:49;;;;;;;9.03;3.97;;;;;;;2.65;89.92;96790.31;5036755;28;20230;-69
2021/11/11 01:02:15;;;;;;;7.97;3.93;;;;;;;2.71;90.55;96790.69;5036965;28;20863;-69
2021/11/11 01:04:42;;;;;;;4.43;2.97;;;;;;;2.89;89.50;96788.41;5037465;28;20234;-69
2021/11/11 01:07:10;;;;;;;4.23;3.27;;;;;;;3.06;90.44;96794.81;5036179;28;20205;-69
2021/11/11 01:09:38;;;;;;;7.23;5.07;;;;;;;3.12;90.76;96791.75;5036392;28;20225;-69
2021/11/11 01:12:05;;;;;;;4.77;4.00;;;;;;;3.12;90.51;96794.34;5036873;28;20227;-69
2021/11/11 01:14:33;;;;;;;7.07;5.67;;;;;;;3.18;90.84;96795.66;5037227;28;20211;-69
2021/11/11 01:17:00;;;;;;;8.23;4.53;;;;;;;3.02;90.72;96797.78;5036772;28;20247;-69
2021/11/11 01:19:27;;;;;;;8.90;5.13;;;;;;;2.80;91.30;96815.16;5036369;28;20311;-69
2021/11/11 01:21:54;;;;;;;6.43;4.93;;;;;;;3.01;90.73;96806.53;5036615;28;20271;-69
2021/11/11 01:24:20;;;;;;;7.80;5.20;;;;;;;2.83;92.57;96814.94;5037139;28;20558;-69
2021/11/11 01:26:47;;;;;;;5.23;4.70;;;;;;;2.87;92.73;96819.78;5036076;28;20211;-69
2021/11/11 01:29:14;;;;;;;7.13;5.00;;;;;;;2.79;91.60;96814.34;5036622;28;20229;-69
2021/11/11 01:31:42;;;;;;;7.83;4.60;;;;;;;3.19;91.00;96810.34;5036775;28;20212;-69
2021/11/11 01:34:09;;;;;;;12.03;4.20;;;;;;;2.99;90.80;96831.84;5036018;28;20747;-69
2021/11/11 01:36:35;;;;;;;3.57;3.27;;;;;;;2.84;91.55;96827.81;5032906;28;20698;-69
2021/11/11 01:39:03;;;;;;;10.43;5.30;;;;;;;2.78;92.18;96819.66;5036784;28;20638;-69
2021/11/11 01:41:30;;;;;;;4.90;2.57;;;;;;;2.76;92.51;96816.31;5036311;28;20208;-69
2021/11/11 01:43:56;;;;;;;4.77;3.70;;;;;;;2.89;92.05;96815.28;5036467;28;20210;-69
2021/11/11 01:46:23;;;;;;;7.13;3.43;;;;;;;2.85;92.49;96813.88;5035953;28;20208;-69
2021/11/11 01:48:51;;;;;;;8.47;4.73;;;;;;;3.16;92.36;96807.97;5036420;28;20216;-69
2021/11/11 01:51:18;;;;;;;6.00;4.50;;;;;;;3.09;91.46;96820.63;5036276;28;20213;-69
2021/11/11 01:53:45;;;;;;;5.03;4.37;;;;;;;3.01;91.69;96814.34;5036458;28;20228;-69
2021/11/11 01:56:11;;;;;;;6.13;3.50;;;;;;;2.80;92.47;96816.00;5035802;28;20255;-69
2021/11/11 01:58:37;;;;;;;10.50;4.10;;;;;;;2.77;93.10;96805.78;5035917;28;20284;-69
2021/11/11 02:01:04;;;;;;;8.80;5.73;;;;;;;2.92;91.66;96796.03;5035958;28;20210;-69
2021/11/11 02:03:31;;;;;;;6.80;4.53;;;;;;;2.79;92.26;96790.06;5036334;28;20205;-69
2021/11/11 02:05:59;;;;;;;9.77;3.93;;;;;;;2.99;92.16;96777.19;5035977;28;20235;-69
2021/11/11 02:08:27;;;;;;;5.77;4.17;;;;;;;3.05;91.24;96768.91;5036129;28;20221;-69
2021/11/11 02:10:53;;;;;;;10.43;3.80;;;;;;;2.72;91.66;96766.28;5036227;28;20201;-69
2021/11/11 02:13:20;;;;;;;7.77;4.60;;;;;;;2.64;92.58;96762.63;5036103;28;20224;-69
2021/11/11 02:15:47;;;;;;;18.87;5.57;;;;;;;2.79;91.70;96770.09;5035426;28;20201;-69
2021/11/11 02:18:13;;;;;;;7.50;5.13;;;;;;;2.69;91.83;96776.13;5035878;28;20221;-69
2021/11/11 02:20:44;;;;;;;6.77;4.87;;;;;;;2.81;92.91;96783.81;5036547;28;20692;-69
2021/11/11 02:23:15;;;;;;;3.37;3.07;;;;;;;2.83;92.02;96789.72;5035710;28;20316;-69
2021/11/11 02:25:42;;;;;;;3.73;3.43;;;;;;;2.74;91.49;96779.22;5035164;28;20207;-69
2021/11/11 02:28:11;;;;;;;3.90;3.10;;;;;;;2.91;90.32;96779.56;5037033;28;20286;-69
2021/11/11 02:30:40;;;;;;;4.97;4.47;;;;;;;2.63;91.78;96793.00;5036290;28;20205;-69
2021/11/11 02:33:11;;;;;;;5.03;3.33;;;;;;;2.68;91.73;96790.88;5035891;28;20235;-69
2021/11/11 02:35:38;;;;;;;6.07;3.87;;;;;;;2.65;91.17;96785.09;5033731;28;20226;-69
2021/11/11 02:38:07;;;;;;;8.30;5.70;;;;;;;2.83;90.32;96788.91;5036419;28;21055;-69
2021/11/11 02:40:35;;;;;;;5.13;4.07;;;;;;;2.53;90.55;96797.28;5035647;28;20886;-69
2021/11/11 02:43:01;;;;;;;5.83;3.97;;;;;;;2.37;90.25;96788.13;5035560;28;20209;-69
2021/11/11 02:45:30;;;;;;;4.80;3.73;;;;;;;2.63;89.83;96790.41;5036370;28;20202;-69
2021/11/11 02:47:58;;;;;;;5.33;4.03;;;;;;;2.77;89.66;96784.16;5039621;28;20229;-69
2021/11/11 02:50:25;;;;;;;5.27;4.77;;;;;;;2.63;89.02;96780.00;5039629;28;20213;-69
2021/11/11 02:52:53;;;;;;;8.87;5.10;;;;;;;2.37;90.34;96780.31;5039489;28;20223;-69
2021/11/11 02:55:22;;;;;;;5.77;3.43;;;;;;;2.42;90.94;96784.22;5039473;28;20205;-69
2021/11/11 02:57:50;;;;;;;4.63;3.33;;;;;;;2.27;90.10;96783.72;5038784;28;20284;-69
2021/11/11 03:00:20;;;;;;;4.17;3.33;;;;;;;2.53;89.19;96779.06;5039789;28;20206;-69
2021/11/11 03:02:49;;;;;;;4.27;2.63;;;;;;;2.55;88.37;96773.72;5039268;28;20198;-69
2021/11/11 03:05:18;;;;;;;5.73;3.40;;;;;;;2.47;87.75;96782.13;5038715;28;20206;-69
2021/11/11 03:07:45;;;;;;;4.50;3.83;;;;;;;2.13;89.97;96789.94;5038756;28;20224;-69
2021/11/11 03:10:16;;;;;;;3.60;3.20;;;;;;;2.41;89.32;96787.75;5039009;28;20753;-69
2021/11/11 03:12:44;;;;;;;3.90;3.50;;;;;;;2.21;90.01;96778.97;5038569;28;20221;-69
2021/11/11 03:15:12;;;;;;;7.67;4.73;;;;;;;2.40;88.06;96784.47;5038983;28;20598;-69
2021/11/11 03:17:39;;;;;;;6.23;3.57;;;;;;;2.17;89.56;96786.16;5038700;28;20205;-69
2021/11/11 03:20:07;;;;;;;4.73;3.10;;;;;;;2.40;89.98;96782.69;5036268;28;20209;-69
2021/11/11 03:22:34;;;;;;;4.47;2.60;;;;;;;2.23;90.30;96785.72;5038761;28;20198;-69
2021/11/11 03:25:00;;;;;;;2.67;2.47;;;;;;;2.33;88.64;96784.09;5039282;28;20218;-69
2021/11/11 03:27:28;;;;;;;3.60;2.77;;;;;;;2.28;88.16;96790.56;5038117;28;20206;-69
2021/11/11 03:29:56;;;;;;;6.40;4.03;;;;;;;2.68;86.32;96790.88;5038612;28;20219;-69
2021/11/11 03:32:22;;;;;;;2.77;2.50;;;;;;;2.26;86.97;96797.66;5038443;28;20704;-69
2021/11/11 03:34:50;;;;;;;4.53;3.07;;;;;;;2.14;86.79;96801.13;5038948;28;20225;-69
2021/11/11 03:37:17;;;;;;;4.97;4.50;;;;;;;2.34;87.28;96790.94;5034815;28;20202;-69
2021/11/11 03:39:44;;;;;;;3.77;3.47;;;;;;;2.16;87.00;96794.06;5038274;28;20237;-69
2021/11/11 03:42:12;;;;;;;5.77;3.60;;;;;;;2.51;87.03;96788.75;5039220;28;20210;-69
2021/11/11 03:44:40;;;;;;;6.03;3.93;;;;;;;2.48;87.72;96799.38;5038873;28;20854;-69
2021/11/11 03:47:08;;;;;;;2.77;2.57;;;;;;;2.54;88.12;96798.09;5036990;28;20701;-69
2021/11/11 03:49:36;;;;;;;6.63;3.33;;;;;;;2.36;88.67;96798.66;5038572;28;20221;-69
2021/11/11 03:52:04;;;;;;;3.10;2.57;;;;;;;2.37;87.51;96800.28;5038931;28;20216;-69
2021/11/11 03:54:32;;;;;;;5.83;2.03;;;;;;;2.33;85.73;96799.69;5038424;28;20229;-69
2021/11/11 03:56:59;;;;;;;6.23;3.73;;;;;;;2.29;86.41;96803.47;5037183;28;20208;-69
2021/11/11 03:59:27;;;;;;;4.97;2.43;;;;;;;2.47;87.24;96796.91;5038143;28;21062;-69
2021/11/11 04:01:55;;;;;;;2.47;2.13;;;;;;;2.37;87.51;96801.13;5037828;28;20662;-69
2021/11/11 04:04:23;;;;;;;2.80;2.50;;;;;;;2.33;87.76;96798.84;5038017;28;20231;-69
2021/11/11 04:06:50;;;;;;;4.20;3.20;;;;;;;2.27;85.69;96804.53;5037513;28;20681;-69
2021/11/11 04:09:17;;;;;;;9.30;3.63;;;;;;;2.34;86.13;96800.50;5037993;28;20228;-69
2021/11/11 04:11:43;;;;;;;4.33;2.77;;;;;;;2.09;86.98;96805.88;5037515;28;20198;-69
2021/11/11 04:14:11;;;;;;;3.17;2.87;;;;;;;2.08;86.15;96799.00;5037960;28;20597;-69
2021/11/11 04:16:39;;;;;;;7.13;2.47;;;;;;;1.95;86.01;96806.88;5037517;28;20201;-69
2021/11/11 04:19:05;;;;;;;4.00;3.10;;;;;;;2.07;87.05;96821.56;5037727;28;21145;-69
2021/11/11 04:21:33;;;;;;;4.53;2.90;;;;;;;2.24;87.18;96815.13;5037820;28;20201;-69
2021/11/11 04:24:00;;;;;;;3.13;2.77;;;;;;;1.94;87.25;96814.78;5037600;28;20212;-69
2021/11/11 04:26:28;;;;;;;3.70;2.30;;;;;;;2.12;85.30;96816.03;5036838;28;20201;-69
2021/11/11 04:28:59;;;;;;;4.23;3.30;;;;;;;1.94;86.22;96804.38;5037178;28;20268;-69
2021/11/11 04:31:27;;;;;;;3.77;2.13;;;;;;;2.10;85.12;96807.50;5037977;28;20203;-69
2021/11/11 04:33:58;;;;;;;4.63;3.03;;;;;;;2.18;85.84;96810.41;5038014;28;20419;-69
2021/11/11 04:39:20;;;;;;;4.10;3.57;;;;;;;2.45;86.26;96809.19;5034254;28;20237;-69
2021/11/11 04:42:06;;;;;;;3.83;2.70;;;;;;;2.35;86.18;96812.56;5037680;28;20208;-70
2021/11/11 04:44:37;;;;;;;4.23;3.13;;;;;;;2.12;86.63;96818.63;5037212;28;20286;-69
2021/11/11 04:47:26;;;;;;;3.83;2.10;;;;;;;2.24;86.21;96815.13;5036783;28;20201;-69
2021/11/11 04:52:47;;;;;;;8.83;3.80;;;;;;;2.11;89.18;96825.59;5036637;28;20304;-69
2021/11/11 05:03:34;;;;;;;8.00;4.50;;;;;;;2.05;90.87;96814.81;5037924;28;20747;-69
2021/11/11 05:06:02;;;;;;;7.60;5.43;;;;;;;2.36;90.76;96820.25;5037243;28;20295;-69
2021/11/11 05:08:29;;;;;;;4.57;4.17;;;;;;;2.43;89.81;96822.31;5036197;28;20232;-69
2021/11/11 05:10:58;;;;;;;9.47;5.03;;;;;;;2.68;90.37;96814.31;5036582;28;20209;-69
2021/11/11 05:13:25;;;;;;;9.20;5.27;;;;;;;2.42;90.86;96828.44;5037076;28;20232;-69
2021/11/11 05:15:52;;;;;;;22.77;4.67;;;;;;;2.29;92.17;96831.22;5036572;28;20201;-69
2021/11/11 05:18:19;;;;;;;4.83;3.47;;;;;;;2.07;92.82;96828.53;5036692;28;20230;-70
2021/11/11 05:20:45;;;;;;;13.40;3.07;;;;;;;2.12;93.22;96831.63;5036817;28;20214;-69
2021/11/11 05:23:12;;;;;;;3.30;2.57;;;;;;;2.43;92.60;96832.69;5036798;28;20670;-69
2021/11/11 05:25:39;;;;;;;3.43;2.97;;;;;;;2.53;92.10;96825.88;5035879;28;20666;-69
2021/11/11 05:28:07;;;;;;;4.33;3.30;;;;;;;2.71;92.00;96827.09;5036349;28;20229;-69
2021/11/11 05:30:34;;;;;;;5.30;3.00;;;;;;;2.59;90.80;96829.78;5036529;28;20205;-69
2021/11/11 05:33:01;;;;;;;6.77;2.93;;;;;;;2.53;91.60;96828.47;5036383;28;20205;-69
2021/11/11 05:35:28;;;;;;;4.70;3.50;;;;;;;2.40;93.03;96834.69;5033527;28;20201;-69
2021/11/11 05:37:54;;;;;;;4.57;3.23;;;;;;;2.02;94.64;96833.25;5036102;28;20205;-70
2021/11/11 05:40:23;;;;;;;2.77;2.57;;;;;;;2.25;95.18;96829.78;5036481;28;20224;-69
2021/11/11 05:42:50;;;;;;;3.83;2.47;;;;;;;2.40;95.22;96832.91;5036325;28;20213;-70
2021/11/11 05:45:19;;;;;;;3.77;2.73;;;;;;;2.79;94.80;96824.75;5036945;28;20206;-70
2021/11/11 05:47:46;;;;;;;2.77;1.43;;;;;;;2.71;94.61;96831.47;5035202;28;20198;-69
2021/11/11 05:50:15;;;;;;;5.97;3.63;;;;;;;2.73;95.46;96840.81;5036697;28;20212;-69
2021/11/11 05:52:42;;;;;;;14.37;4.57;;;;;;;2.66;95.23;96843.97;5037078;28;20228;-69
2021/11/11 05:55:09;;;;;;;4.87;3.73;;;;;;;2.72;95.42;96846.13;5036157;28;20232;-69
2021/11/11 05:57:36;;;;;;;5.07;2.40;;;;;;;2.62;95.42;96848.59;5035722;28;20209;-69
2021/11/11 06:00:06;;;;;;;4.27;2.63;;;;;;;2.61;95.97;96836.53;5036483;28;20208;-69
2021/11/11 06:02:33;;;;;;;3.30;2.40;;;;;;;2.74;96.08;96841.66;5035986;28;20211;-69
2021/11/11 06:05:00;;;;;;;4.53;2.57;;;;;;;2.53;95.48;96849.28;5036202;28;20208;-69
2021/11/11 06:07:26;;;;;;;2.80;2.20;;;;;;;2.66;95.08;96850.03;5035971;28;20542;-69
2021/11/11 06:09:53;;;;;;;2.73;2.50;;;;;;;2.66;95.47;96850.03;5036472;28;20217;-70
2021/11/11 06:12:19;;;;;;;4.43;3.17;;;;;;;2.78;95.37;96851.69;5035729;28;20969;-70
2021/11/11 06:14:46;;;;;;;12.47;4.13;;;;;;;2.87;94.82;96858.81;5036480;28;20236;-70
2021/11/11 06:17:12;;;;;;;6.57;4.17;;;;;;;2.82;95.44;96858.31;5036277;28;20696;-70
2021/11/11 06:19:43;;;;;;;4.00;2.90;;;;;;;2.89;95.42;96859.53;5036101;28;20398;-70
2021/11/11 06:22:10;;;;;;;6.17;4.17;;;;;;;2.96;95.25;96865.09;5038147;28;20242;-70
2021/11/11 06:24:36;;;;;;;14.30;2.80;;;;;;;2.99;95.24;96873.50;5040244;28;20201;-70
2021/11/11 06:27:04;;;;;;;8.47;4.00;;;;;;;3.15;95.03;96864.41;5039257;28;21178;-70
2021/11/11 06:29:30;;;;;;;6.03;4.40;;;;;;;3.13;94.65;96868.06;5039512;28;20217;-70
2021/11/11 06:31:56;;;;;;;6.43;4.07;;;;;;;3.01;95.65;96860.38;5040109;28;20200;-70
2021/11/11 06:34:23;;;;;;;4.40;2.83;;;;;;;3.14;94.99;96862.78;5040030;28;20221;-70
2021/11/11 06:36:51;;;;;;;3.33;2.67;;;;;;;3.00;95.92;96863.94;5035897;28;20216;-70
2021/11/11 06:39:17;;;;;;;7.40;3.50;;;;;;;2.90;95.17;96879.41;5039749;28;20243;-69
2021/11/11 06:41:44;;;;;;;2.07;1.93;;;;;;;3.00;95.53;96875.16;5039653;28;20205;-70
2021/11/11 06:44:18;;;;;;;5.83;3.97;;;;;;;3.13;95.01;96878.50;5039601;28;20212;-69
2021/11/11 06:46:45;;;;;;;3.53;3.07;;;;;;;2.92;95.43;96876.69;5038910;28;20205;-69
2021/11/11 06:49:11;;;;;;;4.83;3.27;;;;;;;2.96;96.28;96878.13;5039283;28;20223;-70
2021/11/11 06:51:38;;;;;;;2.50;2.30;;;;;;;3.09;95.23;96870.09;5039687;28;20211;-70
2021/11/11 06:54:08;;;;;;;5.60;3.57;;;;;;;3.32;95.68;96881.34;5039570;28;20241;-70
2021/11/11 06:56:35;;;;;;;8.47;3.80;;;;;;;3.03;95.42;96885.38;5038973;28;20308;-70
2021/11/11 06:59:01;;;;;;;9.13;2.13;;;;;;;3.11;95.64;96877.78;5039060;28;20230;-69
2021/11/11 07:01:28;;;;;;;5.60;3.30;;;;;;;3.13;95.04;96873.28;5039552;28;20212;-70
2021/11/11 07:03:54;;;;;;;5.50;3.27;;;;;;;3.25;95.38;96874.97;5039606;28;20199;-69
2021/11/11 07:06:21;;;;;;;2.83;2.40;;;;;;;3.28;94.62;96874.72;5038350;28;20772;-69
2021/11/11 07:08:47;;;;;;;18.53;4.77;;;;;;;3.39;94.60;96870.34;5039504;28;20227;-69
2021/11/11 07:11:15;;;;;;;4.03;3.13;;;;;;;3.57;94.53;96871.53;5038821;28;21132;-70
2021/11/11 07:13:42;;;;;;;6.83;3.43;;;;;;;3.18;95.04;96871.16;5039121;28;20232;-69
2021/11/11 07:16:08;;;;;;;5.27;3.20;;;;;;;2.87;96.65;96874.44;5038620;28;20208;-69
2021/11/11 07:18:35;;;;;;;2.70;2.50;;;;;;;3.08;95.74;96878.84;5039108;28;20246;-69
2021/11/11 07:21:01;;;;;;;5.10;3.23;;;;;;;3.28;95.05;96879.94;5038858;28;20204;-69
2021/11/11 07:23:28;;;;;;;5.67;3.70;;;;;;;3.15;95.05;96879.22;5041492;28;20207;-70
2021/11/11 07:25:55;;;;;;;3.37;2.63;;;;;;;3.20;96.16;96884.91;5048507;28;20685;-70
2021/11/11 07:28:23;;;;;;;2.23;2.03;;;;;;;3.52;95.79;96885.88;5048227;28;21006;-70
2021/11/11 07:30:50;;;;;;;2.80;2.33;;;;;;;3.57;95.19;96887.16;5047327;28;20636;-70
2021/11/11 07:33:18;;;;;;;5.70;4.77;;;;;;;3.38;95.04;96886.91;5048129;28;20205;-70
2021/11/11 07:35:45;;;;;;;3.87;3.47;;;;;;;3.14;96.20;96887.97;5045028;28;20231;-70
2021/11/11 07:38:12;;;;;;;4.27;3.80;;;;;;;3.09;96.00;96901.34;5046005;28;20240;-70
2021/11/11 07:40:39;;;;;;;2.63;2.43;;;;;;;3.11;96.17;96898.63;5047023;28;20208;-70
2021/11/11 07:43:06;;;;;;;2.73;2.47;;;;;;;2.77;96.73;96903.88;5046765;28;20206;-70
2021/11/11 07:45:35;;;;;;;3.70;2.90;;;;;;;3.18;98.03;96899.81;5045589;28;20201;-70
2021/11/11 07:48:02;;;;;;;6.17;1.97;;;;;;;3.01;96.77;96896.84;5046098;28;20228;-70
2021/11/11 07:50:31;;;;;;;6.87;3.47;;;;;;;3.23;97.27;96897.69;5046539;28;20667;-70
2021/11/11 07:53:00;;;;;;;4.83;3.83;;;;;;;3.09;97.00;96895.28;5045975;28;20431;-70
2021/11/11 07:55:26;;;;;;;3.13;2.57;;;;;;;3.06;96.84;96898.94;5045484;28;20374;-70
2021/11/11 07:57:53;;;;;;;4.20;3.00;;;;;;;3.22;96.55;96898.63;5045855;28;20256;-70
2021/11/11 08:00:21;;;;;;;4.07;3.67;;;;;;;3.60;96.22;96892.13;5045238;28;20199;-70
2021/11/11 08:02:49;;;;;;;5.10;2.87;;;;;;;3.85;95.92;96891.88;5045045;28;20237;-70
2021/11/11 08:05:17;;;;;;;2.90;2.43;;;;;;;3.86;95.38;96899.56;5045271;28;20197;-70
2021/11/11 08:07:44;;;;;;;3.83;2.33;;;;;;;4.00;95.03;96903.72;5043899;28;20208;-70
2021/11/11 08:10:11;;;;;;;7.13;3.30;;;;;;;3.95;94.61;96904.06;5045193;28;20229;-70
2021/11/11 08:12:39;;;;;;;3.50;2.63;;;;;;;4.02;94.52;96901.78;5044837;28;20204;-70
2021/11/11 08:15:06;;;;;;;4.73;3.27;;;;;;;4.13;94.34;96904.41;5044949;28;20229;-70
2021/11/11 08:17:32;;;;;;;3.20;2.20;;;;;;;4.17;94.57;96897.97;5043972;28;20239;-70
2021/11/11 08:20:00;;;;;;;3.27;2.57;;;;;;;4.60;93.65;96889.19;5043940;28;20634;-70
2021/11/11 08:22:28;;;;;;;13.10;5.50;;;;;;;4.69;93.48;96896.25;5044244;28;20193;-70
2021/11/11 08:24:56;;;;;;;3.47;3.00;;;;;;;4.45;92.81;96901.66;5044331;28;20204;-70
2021/11/11 08:27:24;;;;;;;7.73;4.77;;;;;;;4.28;93.57;96904.00;5043499;28;20215;-70
2021/11/11 08:29:51;;;;;;;4.60;3.97;;;;;;;4.38;93.52;96907.53;5044540;28;20242;-70
2021/11/11 08:32:18;;;;;;;4.83;3.57;;;;;;;4.02;94.53;96909.63;5041966;28;20204;-70
2021/11/11 08:34:47;;;;;;;11.80;5.13;;;;;;;4.39;94.28;96907.41;5042648;28;20239;-70
2021/11/11 08:37:15;;;;;;;8.57;3.53;;;;;;;4.69;93.53;96898.88;5039711;28;20220;-70
2021/11/11 08:39:42;;;;;;;3.20;2.87;;;;;;;4.31;94.06;96895.91;5042053;28;20240;-70
2021/11/11 08:42:11;;;;;;;5.87;3.43;;;;;;;4.38;94.68;96897.91;5041570;28;20212;-70
2021/11/11 08:44:38;;;;;;;4.77;3.20;;;;;;;4.34;94.50;96906.94;5042188;28;20207;-70
2021/11/11 08:47:05;;;;;;;6.00;4.00;;;;;;;4.57;94.48;96900.69;5042772;28;20303;-70
2021/11/11 08:49:32;;;;;;;5.67;4.10;;;;;;;4.49;93.49;96904.88;5042653;28;20227;-70
2021/11/11 08:51:58;;;;;;;3.10;2.33;;;;;;;4.30;93.57;96905.53;5042277;28;20256;-70
2021/11/11 08:54:26;;;;;;;3.77;2.83;;;;;;;4.80;93.50;96902.25;5043501;28;20224;-70
2021/11/11 08:56:54;;;;;;;5.67;2.77;;;;;;;4.79;93.34;96902.38;5043320;28;21139;-70
2021/11/11 08:59:21;;;;;;;7.00;3.43;;;;;;;4.41;94.41;96895.03;5043291;28;20255;-70
2021/11/11 09:01:49;;;;;;;2.30;2.10;;;;;;;4.67;92.72;96887.72;5043610;28;20203;-70
2021/11/11 09:04:16;;;;;;;3.53;2.73;;;;;;;4.69;93.07;96883.19;5043065;28;21145;-70
2021/11/11 09:06:43;;;;;;;8.77;3.77;;;;;;;4.91;92.12;96882.13;5042319;28;20242;-70
2021/11/11 09:09:10;;;;;;;5.03;3.13;;;;;;;4.86;92.08;96884.28;5043031;28;20224;-70
2021/11/11 09:11:38;;;;;;;6.13;2.77;;;;;;;5.29;92.27;96877.13;5042815;28;20201;-70
2021/11/11 09:14:05;;;;;;;5.63;3.53;;;;;;;4.82;93.14;96888.13;5042310;28;20286;-70
2021/11/11 09:16:32;;;;;;;15.90;4.87;;;;;;;5.11;92.69;96876.06;5043463;28;20228;-70
2021/11/11 09:18:59;;;;;;;4.83;3.80;;;;;;;4.90;92.71;96880.47;5043233;28;20320;-70
2021/11/11 09:21:28;;;;;;;10.13;4.63;;;;;;;5.14;92.43;96873.22;5043347;28;20197;-70
2021/11/11 09:23:54;;;;;;;5.07;3.87;;;;;;;5.31;91.89;96879.59;5043312;28;20208;-70
2021/11/11 09:26:21;;;;;;;5.27;2.00;;;;;;;5.09;91.84;96880.59;5042793;28;20201;-70
2021/11/11 09:28:49;;;;;;;6.27;3.17;;;;;;;5.56;92.05;96877.38;5042504;28;20220;-70
2021/11/11 09:31:16;;;;;;;3.63;2.83;;;;;;;5.00;93.02;96891.81;5041921;28;20212;-70
2021/11/11 09:33:48;;;;;;;6.10;3.17;;;;;;;5.13;93.41;96889.84;5043180;28;20236;-70
2021/11/11 09:36:16;;;;;;;4.77;3.30;;;;;;;4.83;94.46;96892.34;5040690;28;20243;-70
2021/11/11 09:38:45;;;;;;;4.77;3.60;;;;;;;5.04;94.86;96898.44;5042361;28;20221;-70
2021/11/11 09:41:12;;;;;;;6.50;3.23;;;;;;;5.14;93.74;96894.09;5042428;28;20633;-70
2021/11/11 09:43:41;;;;;;;8.60;4.10;;;;;;;5.46;93.13;96887.00;5042192;28;20211;-70
2021/11/11 09:46:11;;;;;;;9.73;4.03;;;;;;;5.79;92.46;96884.13;5040969;28;20206;-70
2021/11/11 09:48:38;;;;;;;6.80;4.03;;;;;;;5.91;92.38;96875.22;5041695;28;20232;-70
2021/11/11 09:51:09;;;;;;;6.40;4.50;;;;;;;5.72;93.76;96883.78;5042294;28;20201;-70
2021/11/11 09:53:43;;;;;;;19.27;4.57;;;;;;;5.80;92.19;96883.97;5041405;28;20292;-70
2021/11/11 09:58:53;;;;;;;8.33;3.90;;;;;;;6.08;90.54;96910.25;5045422;28;20230;-70
2021/11/11 10:01:24;;;;;;;3.73;3.20;;;;;;;6.33;90.98;96909.75;5044844;28;20201;-70
2021/11/11 10:03:52;;;;;;;6.37;4.53;;;;;;;6.20;91.65;96913.59;5045699;28;20201;-70
2021/11/11 10:06:22;;;;;;;4.67;3.20;;;;;;;6.54;90.89;96899.97;5044971;28;20198;-70
2021/11/11 10:08:51;;;;;;;6.87;4.57;;;;;;;6.42;90.81;96908.13;5041547;28;20838;-70
2021/11/11 10:11:29;;;;;;;7.77;4.00;;;;;;;6.41;91.29;96903.84;5042384;28;20201;-70
2021/11/11 10:13:57;;;;;;;7.60;3.50;;;;;;;6.43;90.87;96900.13;5041264;28;20204;-70
2021/11/11 10:16:25;;;;;;;12.90;5.03;;;;;;;6.68;90.64;96904.81;5042145;28;20218;-69
2021/11/11 10:18:54;;;;;;;5.97;4.27;;;;;;;6.59;90.60;96905.63;5046796;28;20228;-70
2021/11/11 10:21:36;;;;;;;9.60;3.57;;;;;;;6.70;90.84;96900.28;5044002;28;20205;-70
2021/11/11 10:24:29;;;;;;;7.23;4.20;;;;;;;6.58;90.74;96897.94;5046088;28;20212;-70
2021/11/11 10:27:03;;;;;;;9.23;4.93;;;;;;;6.91;90.47;96895.72;5037809;28;20626;-70
2021/11/11 10:29:33;;;;;;;8.90;5.20;;;;;;;6.79;90.60;96891.59;5045564;28;20217;-70
2021/11/11 10:32:12;;;;;;;9.00;5.07;;;;;;;7.05;90.36;96887.44;5046046;28;20201;-70
2021/11/11 10:34:52;;;;;;;6.43;3.80;;;;;;;7.27;90.15;96888.78;5046533;28;20614;-70
2021/11/11 10:37:20;;;;;;;9.43;5.27;;;;;;;7.07;91.41;96885.50;5044353;28;20205;-70
2021/11/11 10:39:57;;;;;;;6.33;3.70;;;;;;;7.61;89.99;96882.06;5045918;28;20373;-70
2021/11/11 10:42:26;;;;;;;6.67;4.87;;;;;;;6.94;91.45;96877.13;5046377;28;20212;-70
2021/11/11 10:44:55;;;;;;;7.70;4.93;;;;;;;7.25;91.44;96878.59;5046024;28;20246;-70
2021/11/11 10:47:28;;;;;;;8.83;5.43;;;;;;;7.25;92.14;96878.59;5044713;28;20300;-70
2021/11/11 10:49:55;;;;;;;16.80;5.93;;;;;;;7.08;91.65;96876.69;5044986;28;20221;-70
2021/11/11 10:52:31;;;;;;;9.30;5.43;;;;;;;7.46;91.09;96880.06;5045517;28;20201;-70
2021/11/11 10:55:17;;;;;;;8.77;5.07;;;;;;;7.80;90.05;96876.72;5046015;28;20698;-70
2021/11/11 10:57:49;;;;;;;11.20;6.33;;;;;;;8.01;90.32;96869.47;5044958;28;20200;-70
2021/11/11 11:00:21;;;;;;;10.03;5.10;;;;;;;7.78;91.56;96868.19;5043885;28;20202;-70
2021/11/11 11:03:02;;;;;;;6.70;4.90;;;;;;;7.89;90.24;96865.34;5043077;28;20209;-71
2021/11/11 11:05:32;;;;;;;5.23;3.17;;;;;;;7.71;91.37;96853.16;5043153;28;20693;-71
2021/11/11 11:08:02;;;;;;;11.37;6.30;;;;;;;8.22;89.55;96851.69;5042094;28;20292;-70
2021/11/11 11:10:30;;;;;;;8.83;6.23;;;;;;;7.94;89.96;96850.00;5044487;28;20205;-70
2021/11/11 11:12:57;;;;;;;9.23;5.43;;;;;;;7.91;91.34;96853.75;5044252;28;20270;-70
2021/11/11 11:15:35;;;;;;;12.63;5.17;;;;;;;8.15;91.94;96851.44;5043306;28;20221;-70
2021/11/11 11:18:03;;;;;;;13.90;7.33;;;;;;;8.61;89.36;96854.72;5042984;28;20235;-71
2021/11/11 11:20:30;;;;;;;16.40;6.43;;;;;;;8.34;88.89;96853.09;5043203;28;20204;-70
2021/11/11 11:23:17;;;;;;;14.40;7.00;;;;;;;8.61;88.64;96849.44;5042807;28;20219;-70
2021/11/11 11:26:00;;;;;;;14.43;4.63;;;;;;;8.73;88.80;96850.91;5042697;28;20201;-70
2021/11/11 11:28:37;;;;;;;17.40;6.43;;;;;;;8.74;88.23;96855.16;5042653;28;20221;-70
2021/11/11 11:31:06;;;;;;;9.80;6.23;;;;;;;8.72;88.58;96856.31;5042768;28;20205;-70
2021/11/11 11:33:43;;;;;;;12.40;6.27;;;;;;;8.76;90.13;96863.72;5043214;28;20216;-70
2021/11/11 11:36:15;;;;;;;11.00;4.60;;;;;;;8.36;91.09;96859.06;5040047;28;20256;-70
2021/11/11 11:38:52;;;;;;;11.27;5.03;;;;;;;8.15;90.85;96845.38;5042281;28;20236;-70
2021/11/11 11:41:31;;;;;;;9.67;5.67;;;;;;;7.82;92.77;96848.56;5042156;28;20768;-70
2021/11/11 11:44:15;;;;;;;8.90;5.27;;;;;;;7.76;93.26;96848.31;5043428;28;20201;-70
2021/11/11 11:46:42;;;;;;;15.50;5.50;;;;;;;7.44;94.02;96847.88;5041938;28;20228;-71
2021/11/11 11:49:10;;;;;;;9.47;5.17;;;;;;;7.56;93.30;96837.09;5042706;28;20951;-70
2021/11/11 11:51:37;;;;;;;11.07;5.73;;;;;;;7.74;92.83;96834.50;5043075;28;20205;-70
2021/11/11 11:54:09;;;;;;;12.80;5.23;;;;;;;7.86;92.10;96821.88;5042791;28;20741;-70
2021/11/11 11:56:43;;;;;;;8.77;5.30;;;;;;;8.18;90.00;96814.38;5041860;28;20984;-70
2021/11/11 11:59:13;;;;;;;9.90;6.33;;;;;;;8.38;89.99;96808.03;5042357;28;20228;-70
2021/11/11 12:01:54;;;;;;;18.53;7.63;;;;;;;8.46;89.11;96797.59;5043167;28;20205;-70
2021/11/11 12:04:34;;;;;;;12.83;6.33;;;;;;;8.91;88.46;96800.94;5042777;28;20314;-70